sensor_id;sensor_type;location;lat;lon;timestamp;P1;durP1;ratioP1;P2;durP2;ratioP2
3034;SDS011;1527;48.836;9.172;2022-09-29T00:01:57;6.75;;;3.78;;
3034;SDS011;1527;48.836;9.172;2022-09-29T00:04:26;4.38;;;3.95;;
3034;SDS011;1527;48.836;9.172;2022-09-29T00:06:55;4.95;;;3.97;;
3034;SDS011;1527;48.836;9.172;2022-09-29T00:09:26;6.13;;;4.10;;
3034;SDS011;1527;48.836;9.172;2022-09-29T00:11:55;5.80;;;3.67;;
3034;SDS011;1527;48.836;9.172;2022-09-29T00:14:24;7.28;;;4.13;;
3034;SDS011;1527;48.836;9.172;2022-09-29T00:16:53;4.50;;;3.88;;
3034;SDS011;1527;48.836;9.172;2022-09-29T00:19:23;4.68;;;3.70;;
3034;SDS011;1527;48.836;9.172;2022-09-29T00:21:54;6.13;;;3.80;;
3034;SDS011;1527;48.836;9.172;2022-09-29T00:24:23;6.07;;;4.40;;
3034;SDS011;1527;48.836;9.172;2022-09-29T00:26:54;7.60;;;3.60;;
3034;SDS011;1527;48.836;9.172;2022-09-29T00:29:23;4.22;;;3.83;;
3034;SDS011;1527;48.836;9.172;2022-09-29T00:31:52;4.68;;;4.13;;
3034;SDS011;1527;48.836;9.172;2022-09-29T00:34:21;7.03;;;4.00;;
3034;SDS011;1527;48.836;9.172;2022-09-29T00:36:50;6.00;;;4.13;;
3034;SDS011;1527;48.836;9.172;2022-09-29T00:39:19;10.70;;;3.67;;
3034;SDS011;1527;48.836;9.172;2022-09-29T00:41:50;4.30;;;3.60;;
3034;SDS011;1527;48.836;9.172;2022-09-29T00:47:44;5.05;;;4.00;;
3034;SDS011;1527;48.836;9.172;2022-09-29T00:50:20;6.93;;;3.80;;
3034;SDS011;1527;48.836;9.172;2022-09-29T00:52:54;4.13;;;3.70;;
3034;SDS011;1527;48.836;9.172;2022-09-29T00:55:29;6.18;;;4.40;;
3034;SDS011;1527;48.836;9.172;2022-09-29T00:58:06;8.10;;;4.55;;
3034;SDS011;1527;48.836;9.172;2022-09-29T01:00:43;5.43;;;3.90;;
3034;SDS011;1527;48.836;9.172;2022-09-29T01:03:12;6.68;;;4.68;;
3034;SDS011;1527;48.836;9.172;2022-09-29T01:05:46;6.30;;;3.58;;
3034;SDS011;1527;48.836;9.172;2022-09-29T01:08:21;5.95;;;4.05;;
3034;SDS011;1527;48.836;9.172;2022-09-29T01:10:56;6.32;;;4.80;;
3034;SDS011;1527;48.836;9.172;2022-09-29T01:13:29;6.55;;;4.15;;
3034;SDS011;1527;48.836;9.172;2022-09-29T01:16:00;6.65;;;3.67;;
3034;SDS011;1527;48.836;9.172;2022-09-29T01:18:30;4.65;;;4.13;;
3034;SDS011;1527;48.836;9.172;2022-09-29T01:21:02;5.75;;;4.13;;
3034;SDS011;1527;48.836;9.172;2022-09-29T01:27:03;6.55;;;4.88;;
3034;SDS011;1527;48.836;9.172;2022-09-29T01:35:47;6.45;;;4.30;;
3034;SDS011;1527;48.836;9.172;2022-09-29T01:38:27;6.50;;;4.50;;
3034;SDS011;1527;48.836;9.172;2022-09-29T01:41:20;9.13;;;4.88;;
3034;SDS011;1527;48.836;9.172;2022-09-29T01:44:02;4.35;;;3.92;;
3034;SDS011;1527;48.836;9.172;2022-09-29T01:46:37;5.85;;;5.25;;
3034;SDS011;1527;48.836;9.172;2022-09-29T01:49:13;4.63;;;4.20;;
3034;SDS011;1527;48.836;9.172;2022-09-29T01:51:46;5.35;;;4.15;;
3034;SDS011;1527;48.836;9.172;2022-09-29T01:54:21;5.47;;;4.88;;
3034;SDS011;1527;48.836;9.172;2022-09-29T01:56:57;6.03;;;4.60;;
3034;SDS011;1527;48.836;9.172;2022-09-29T01:59:32;6.50;;;5.32;;
3034;SDS011;1527;48.836;9.172;2022-09-29T02:02:10;6.18;;;4.50;;
3034;SDS011;1527;48.836;9.172;2022-09-29T02:04:46;7.18;;;4.75;;
3034;SDS011;1527;48.836;9.172;2022-09-29T02:07:21;5.13;;;4.40;;
3034;SDS011;1527;48.836;9.172;2022-09-29T02:09:57;5.32;;;4.80;;
3034;SDS011;1527;48.836;9.172;2022-09-29T02:12:32;4.65;;;4.20;;
3034;SDS011;1527;48.836;9.172;2022-09-29T02:15:04;5.60;;;4.80;;
3034;SDS011;1527;48.836;9.172;2022-09-29T02:17:37;10.10;;;5.78;;
3034;SDS011;1527;48.836;9.172;2022-09-29T02:20:10;5.18;;;4.60;;
3034;SDS011;1527;48.836;9.172;2022-09-29T02:22:40;6.68;;;4.80;;
3034;SDS011;1527;48.836;9.172;2022-09-29T02:25:10;7.40;;;4.60;;
3034;SDS011;1527;48.836;9.172;2022-09-29T02:27:44;5.63;;;5.13;;
3034;SDS011;1527;48.836;9.172;2022-09-29T02:30:15;5.97;;;5.38;;
3034;SDS011;1527;48.836;9.172;2022-09-29T02:32:45;5.35;;;4.85;;
3034;SDS011;1527;48.836;9.172;2022-09-29T02:35:16;5.60;;;4.93;;
3034;SDS011;1527;48.836;9.172;2022-09-29T02:37:46;5.38;;;4.75;;
3034;SDS011;1527;48.836;9.172;2022-09-29T02:40:31;6.65;;;5.43;;
3034;SDS011;1527;48.836;9.172;2022-09-29T02:43:12;8.98;;;5.22;;
3034;SDS011;1527;48.836;9.172;2022-09-29T02:45:59;5.63;;;5.03;;
3034;SDS011;1527;48.836;9.172;2022-09-29T02:48:46;7.82;;;5.15;;
3034;SDS011;1527;48.836;9.172;2022-09-29T02:51:46;5.65;;;4.85;;
3034;SDS011;1527;48.836;9.172;2022-09-29T02:54:24;6.20;;;4.60;;
3034;SDS011;1527;48.836;9.172;2022-09-29T02:57:12;6.88;;;4.80;;
3034;SDS011;1527;48.836;9.172;2022-09-29T02:59:50;7.50;;;5.10;;
3034;SDS011;1527;48.836;9.172;2022-09-29T03:02:31;9.48;;;5.07;;
3034;SDS011;1527;48.836;9.172;2022-09-29T03:05:00;13.68;;;5.55;;
3034;SDS011;1527;48.836;9.172;2022-09-29T03:07:32;6.53;;;4.82;;
3034;SDS011;1527;48.836;9.172;2022-09-29T03:10:03;7.13;;;4.80;;
3034;SDS011;1527;48.836;9.172;2022-09-29T03:12:34;6.93;;;5.47;;
3034;SDS011;1527;48.836;9.172;2022-09-29T03:15:04;6.45;;;4.75;;
3034;SDS011;1527;48.836;9.172;2022-09-29T03:17:35;8.88;;;5.38;;
3034;SDS011;1527;48.836;9.172;2022-09-29T03:20:04;7.13;;;5.40;;
3034;SDS011;1527;48.836;9.172;2022-09-29T03:22:36;8.00;;;5.82;;
3034;SDS011;1527;48.836;9.172;2022-09-29T03:25:05;8.18;;;5.88;;
3034;SDS011;1527;48.836;9.172;2022-09-29T03:27:35;6.05;;;5.10;;
3034;SDS011;1527;48.836;9.172;2022-09-29T03:30:05;6.47;;;5.20;;
3034;SDS011;1527;48.836;9.172;2022-09-29T03:32:36;7.43;;;4.70;;
3034;SDS011;1527;48.836;9.172;2022-09-29T03:35:06;6.63;;;4.93;;
3034;SDS011;1527;48.836;9.172;2022-09-29T03:37:37;5.15;;;4.65;;
3034;SDS011;1527;48.836;9.172;2022-09-29T03:40:07;9.95;;;6.10;;
3034;SDS011;1527;48.836;9.172;2022-09-29T03:42:37;7.65;;;6.03;;
3034;SDS011;1527;48.836;9.172;2022-09-29T03:45:06;8.70;;;5.43;;
3034;SDS011;1527;48.836;9.172;2022-09-29T03:47:36;10.95;;;5.80;;
3034;SDS011;1527;48.836;9.172;2022-09-29T03:50:06;5.50;;;5.00;;
3034;SDS011;1527;48.836;9.172;2022-09-29T03:52:37;6.85;;;5.05;;
3034;SDS011;1527;48.836;9.172;2022-09-29T03:55:07;7.57;;;5.28;;
3034;SDS011;1527;48.836;9.172;2022-09-29T03:57:36;6.07;;;5.13;;
3034;SDS011;1527;48.836;9.172;2022-09-29T04:00:06;10.55;;;6.30;;
3034;SDS011;1527;48.836;9.172;2022-09-29T04:02:36;6.63;;;5.95;;
3034;SDS011;1527;48.836;9.172;2022-09-29T04:05:06;9.93;;;5.75;;
3034;SDS011;1527;48.836;9.172;2022-09-29T04:07:35;8.40;;;5.90;;
3034;SDS011;1527;48.836;9.172;2022-09-29T04:10:08;10.18;;;6.13;;
3034;SDS011;1527;48.836;9.172;2022-09-29T04:12:37;7.20;;;5.80;;
3034;SDS011;1527;48.836;9.172;2022-09-29T04:15:06;7.05;;;5.20;;
3034;SDS011;1527;48.836;9.172;2022-09-29T04:17:36;6.15;;;5.40;;
3034;SDS011;1527;48.836;9.172;2022-09-29T04:20:06;9.07;;;5.75;;
3034;SDS011;1527;48.836;9.172;2022-09-29T04:22:37;7.78;;;5.90;;
3034;SDS011;1527;48.836;9.172;2022-09-29T04:25:07;8.32;;;6.32;;
3034;SDS011;1527;48.836;9.172;2022-09-29T04:27:36;9.93;;;6.20;;
3034;SDS011;1527;48.836;9.172;2022-09-29T04:30:06;6.40;;;5.18;;
3034;SDS011;1527;48.836;9.172;2022-09-29T04:32:37;11.75;;;6.85;;
3034;SDS011;1527;48.836;9.172;2022-09-29T04:35:06;8.63;;;7.35;;
3034;SDS011;1527;48.836;9.172;2022-09-29T04:37:37;7.85;;;6.07;;
3034;SDS011;1527;48.836;9.172;2022-09-29T04:40:07;9.18;;;6.60;;
3034;SDS011;1527;48.836;9.172;2022-09-29T04:42:37;6.65;;;5.30;;
3034;SDS011;1527;48.836;9.172;2022-09-29T04:45:07;13.48;;;7.10;;
3034;SDS011;1527;48.836;9.172;2022-09-29T04:47:37;10.77;;;6.80;;
3034;SDS011;1527;48.836;9.172;2022-09-29T04:50:06;6.55;;;5.85;;
3034;SDS011;1527;48.836;9.172;2022-09-29T04:52:40;12.38;;;6.20;;
3034;SDS011;1527;48.836;9.172;2022-09-29T04:55:10;11.02;;;6.78;;
3034;SDS011;1527;48.836;9.172;2022-09-29T04:57:40;7.75;;;6.82;;
3034;SDS011;1527;48.836;9.172;2022-09-29T05:00:10;12.32;;;6.40;;
3034;SDS011;1527;48.836;9.172;2022-09-29T05:02:41;9.43;;;6.75;;
3034;SDS011;1527;48.836;9.172;2022-09-29T05:05:15;7.28;;;6.30;;
3034;SDS011;1527;48.836;9.172;2022-09-29T05:07:46;9.65;;;6.53;;
3034;SDS011;1527;48.836;9.172;2022-09-29T05:10:15;13.13;;;8.10;;
3034;SDS011;1527;48.836;9.172;2022-09-29T05:12:47;13.60;;;7.72;;
3034;SDS011;1527;48.836;9.172;2022-09-29T05:15:17;12.05;;;7.10;;
3034;SDS011;1527;48.836;9.172;2022-09-29T05:17:52;9.30;;;7.75;;
3034;SDS011;1527;48.836;9.172;2022-09-29T05:20:20;13.23;;;8.57;;
3034;SDS011;1527;48.836;9.172;2022-09-29T05:22:51;10.35;;;7.10;;
3034;SDS011;1527;48.836;9.172;2022-09-29T05:25:20;10.90;;;6.30;;
3034;SDS011;1527;48.836;9.172;2022-09-29T05:27:49;12.10;;;8.50;;
3034;SDS011;1527;48.836;9.172;2022-09-29T05:30:18;10.98;;;7.28;;
3034;SDS011;1527;48.836;9.172;2022-09-29T05:32:47;10.15;;;8.25;;
3034;SDS011;1527;48.836;9.172;2022-09-29T05:35:20;11.38;;;7.95;;
3034;SDS011;1527;48.836;9.172;2022-09-29T05:37:51;13.05;;;7.80;;
3034;SDS011;1527;48.836;9.172;2022-09-29T05:40:20;11.35;;;7.68;;
3034;SDS011;1527;48.836;9.172;2022-09-29T05:42:50;14.32;;;10.57;;
3034;SDS011;1527;48.836;9.172;2022-09-29T05:45:19;22.27;;;12.35;;
3034;SDS011;1527;48.836;9.172;2022-09-29T05:47:48;10.50;;;8.70;;
3034;SDS011;1527;48.836;9.172;2022-09-29T05:50:17;11.27;;;6.60;;
3034;SDS011;1527;48.836;9.172;2022-09-29T05:52:46;8.93;;;5.70;;
3034;SDS011;1527;48.836;9.172;2022-09-29T05:55:17;7.60;;;6.10;;
3034;SDS011;1527;48.836;9.172;2022-09-29T05:57:47;13.02;;;6.70;;
3034;SDS011;1527;48.836;9.172;2022-09-29T06:00:16;15.25;;;8.45;;
3034;SDS011;1527;48.836;9.172;2022-09-29T06:02:45;10.65;;;7.75;;
3034;SDS011;1527;48.836;9.172;2022-09-29T06:05:14;9.43;;;7.70;;
3034;SDS011;1527;48.836;9.172;2022-09-29T06:07:43;11.00;;;7.22;;
3034;SDS011;1527;48.836;9.172;2022-09-29T06:10:12;11.65;;;7.30;;
3034;SDS011;1527;48.836;9.172;2022-09-29T06:12:43;10.90;;;8.45;;
3034;SDS011;1527;48.836;9.172;2022-09-29T06:15:12;10.07;;;7.43;;
3034;SDS011;1527;48.836;9.172;2022-09-29T06:17:41;15.40;;;8.45;;
3034;SDS011;1527;48.836;9.172;2022-09-29T06:20:10;17.67;;;8.95;;
3034;SDS011;1527;48.836;9.172;2022-09-29T06:22:39;12.27;;;7.90;;
3034;SDS011;1527;48.836;9.172;2022-09-29T06:25:08;11.57;;;8.18;;
3034;SDS011;1527;48.836;9.172;2022-09-29T06:27:37;16.50;;;8.82;;
3034;SDS011;1527;48.836;9.172;2022-09-29T06:30:09;11.93;;;8.70;;
3034;SDS011;1527;48.836;9.172;2022-09-29T06:32:40;13.10;;;8.27;;
3034;SDS011;1527;48.836;9.172;2022-09-29T06:35:09;8.80;;;7.18;;
3034;SDS011;1527;48.836;9.172;2022-09-29T06:37:55;11.32;;;7.40;;
3034;SDS011;1527;48.836;9.172;2022-09-29T06:40:25;8.95;;;7.50;;
3034;SDS011;1527;48.836;9.172;2022-09-29T06:42:54;9.30;;;7.68;;
3034;SDS011;1527;48.836;9.172;2022-09-29T06:45:25;9.02;;;7.93;;
3034;SDS011;1527;48.836;9.172;2022-09-29T06:47:56;10.13;;;8.15;;
3034;SDS011;1527;48.836;9.172;2022-09-29T06:50:26;10.18;;;7.05;;
3034;SDS011;1527;48.836;9.172;2022-09-29T06:52:56;11.07;;;8.40;;
3034;SDS011;1527;48.836;9.172;2022-09-29T06:55:30;14.23;;;8.73;;
3034;SDS011;1527;48.836;9.172;2022-09-29T06:57:59;10.55;;;9.27;;
3034;SDS011;1527;48.836;9.172;2022-09-29T07:00:31;10.13;;;7.90;;
3034;SDS011;1527;48.836;9.172;2022-09-29T07:03:02;10.07;;;8.20;;
3034;SDS011;1527;48.836;9.172;2022-09-29T07:05:31;11.35;;;8.30;;
3034;SDS011;1527;48.836;9.172;2022-09-29T07:08:00;10.35;;;8.73;;
3034;SDS011;1527;48.836;9.172;2022-09-29T07:10:29;15.80;;;8.65;;
3034;SDS011;1527;48.836;9.172;2022-09-29T07:12:58;10.73;;;8.23;;
3034;SDS011;1527;48.836;9.172;2022-09-29T07:15:28;12.40;;;9.25;;
3034;SDS011;1527;48.836;9.172;2022-09-29T07:18:00;14.48;;;7.93;;
3034;SDS011;1527;48.836;9.172;2022-09-29T07:20:29;14.45;;;9.60;;
3034;SDS011;1527;48.836;9.172;2022-09-29T07:22:59;8.70;;;7.80;;
3034;SDS011;1527;48.836;9.172;2022-09-29T07:25:28;13.77;;;8.20;;
3034;SDS011;1527;48.836;9.172;2022-09-29T07:28:17;11.20;;;7.80;;
3034;SDS011;1527;48.836;9.172;2022-09-29T07:30:46;10.48;;;9.00;;
3034;SDS011;1527;48.836;9.172;2022-09-29T07:33:41;12.02;;;8.98;;
3034;SDS011;1527;48.836;9.172;2022-09-29T07:36:10;12.75;;;9.20;;
3034;SDS011;1527;48.836;9.172;2022-09-29T07:38:40;11.15;;;8.20;;
3034;SDS011;1527;48.836;9.172;2022-09-29T07:41:14;11.90;;;8.43;;
3034;SDS011;1527;48.836;9.172;2022-09-29T07:43:45;11.25;;;8.05;;
3034;SDS011;1527;48.836;9.172;2022-09-29T07:46:15;15.35;;;9.55;;
3034;SDS011;1527;48.836;9.172;2022-09-29T07:48:48;13.35;;;8.25;;
3034;SDS011;1527;48.836;9.172;2022-09-29T07:51:18;13.70;;;9.15;;
3034;SDS011;1527;48.836;9.172;2022-09-29T07:53:47;11.98;;;9.43;;
3034;SDS011;1527;48.836;9.172;2022-09-29T07:56:17;10.18;;;8.02;;
3034;SDS011;1527;48.836;9.172;2022-09-29T07:58:48;12.45;;;7.68;;
3034;SDS011;1527;48.836;9.172;2022-09-29T08:01:18;9.23;;;7.43;;
3034;SDS011;1527;48.836;9.172;2022-09-29T08:03:50;14.23;;;8.00;;
3034;SDS011;1527;48.836;9.172;2022-09-29T08:06:22;10.77;;;8.13;;
3034;SDS011;1527;48.836;9.172;2022-09-29T08:08:53;12.45;;;9.38;;
3034;SDS011;1527;48.836;9.172;2022-09-29T08:11:31;9.00;;;7.40;;
3034;SDS011;1527;48.836;9.172;2022-09-29T08:14:04;10.65;;;7.90;;
3034;SDS011;1527;48.836;9.172;2022-09-29T08:16:34;8.40;;;6.90;;
3034;SDS011;1527;48.836;9.172;2022-09-29T08:19:06;7.80;;;7.00;;
3034;SDS011;1527;48.836;9.172;2022-09-29T08:21:35;9.80;;;7.22;;
3034;SDS011;1527;48.836;9.172;2022-09-29T08:24:05;17.38;;;8.50;;
3034;SDS011;1527;48.836;9.172;2022-09-29T08:26:35;9.35;;;7.55;;
3034;SDS011;1527;48.836;9.172;2022-09-29T08:29:10;10.52;;;7.25;;
3034;SDS011;1527;48.836;9.172;2022-09-29T08:31:44;9.65;;;7.20;;
3034;SDS011;1527;48.836;9.172;2022-09-29T08:34:16;10.10;;;7.63;;
3034;SDS011;1527;48.836;9.172;2022-09-29T08:36:45;7.40;;;6.50;;
3034;SDS011;1527;48.836;9.172;2022-09-29T08:39:14;12.35;;;6.70;;
3034;SDS011;1527;48.836;9.172;2022-09-29T08:41:48;10.82;;;7.32;;
3034;SDS011;1527;48.836;9.172;2022-09-29T08:44:23;9.23;;;7.57;;
3034;SDS011;1527;48.836;9.172;2022-09-29T08:47:16;8.80;;;7.90;;
3034;SDS011;1527;48.836;9.172;2022-09-29T08:49:53;10.68;;;7.80;;
3034;SDS011;1527;48.836;9.172;2022-09-29T08:52:25;11.13;;;7.47;;
3034;SDS011;1527;48.836;9.172;2022-09-29T08:55:11;8.65;;;7.47;;
3034;SDS011;1527;48.836;9.172;2022-09-29T08:57:52;14.00;;;7.45;;
3034;SDS011;1527;48.836;9.172;2022-09-29T09:00:29;8.20;;;7.40;;
3034;SDS011;1527;48.836;9.172;2022-09-29T09:03:13;7.32;;;6.60;;
3034;SDS011;1527;48.836;9.172;2022-09-29T09:06:29;8.70;;;6.05;;
3034;SDS011;1527;48.836;9.172;2022-09-29T09:12:24;7.05;;;5.85;;
3034;SDS011;1527;48.836;9.172;2022-09-29T09:15:25;10.10;;;7.05;;
3034;SDS011;1527;48.836;9.172;2022-09-29T09:18:19;9.25;;;7.15;;
3034;SDS011;1527;48.836;9.172;2022-09-29T09:21:23;9.32;;;7.10;;
3034;SDS011;1527;48.836;9.172;2022-09-29T09:24:05;10.18;;;6.07;;
3034;SDS011;1527;48.836;9.172;2022-09-29T09:26:50;9.23;;;6.88;;
3034;SDS011;1527;48.836;9.172;2022-09-29T09:29:21;9.18;;;5.95;;
3034;SDS011;1527;48.836;9.172;2022-09-29T09:32:02;7.32;;;5.40;;
3034;SDS011;1527;48.836;9.172;2022-09-29T09:34:36;7.72;;;5.82;;
3034;SDS011;1527;48.836;9.172;2022-09-29T09:37:15;8.18;;;4.75;;
3034;SDS011;1527;48.836;9.172;2022-09-29T09:39:50;6.00;;;5.40;;
3034;SDS011;1527;48.836;9.172;2022-09-29T09:42:27;5.88;;;5.10;;
3034;SDS011;1527;48.836;9.172;2022-09-29T09:45:02;9.30;;;6.07;;
3034;SDS011;1527;48.836;9.172;2022-09-29T09:47:36;6.28;;;5.68;;
3034;SDS011;1527;48.836;9.172;2022-09-29T09:50:11;12.57;;;5.35;;
3034;SDS011;1527;48.836;9.172;2022-09-29T09:52:45;6.95;;;6.05;;
3034;SDS011;1527;48.836;9.172;2022-09-29T09:55:19;7.85;;;6.18;;
3034;SDS011;1527;48.836;9.172;2022-09-29T09:57:53;7.38;;;5.55;;
3034;SDS011;1527;48.836;9.172;2022-09-29T10:00:41;7.03;;;5.65;;
3034;SDS011;1527;48.836;9.172;2022-09-29T10:03:14;9.38;;;5.72;;
3034;SDS011;1527;48.836;9.172;2022-09-29T10:05:44;9.50;;;7.80;;
3034;SDS011;1527;48.836;9.172;2022-09-29T10:08:17;9.40;;;6.53;;
3034;SDS011;1527;48.836;9.172;2022-09-29T10:10:51;6.95;;;5.50;;
3034;SDS011;1527;48.836;9.172;2022-09-29T10:13:26;17.63;;;6.55;;
3034;SDS011;1527;48.836;9.172;2022-09-29T10:15:57;9.63;;;6.10;;
3034;SDS011;1527;48.836;9.172;2022-09-29T10:18:35;12.85;;;5.68;;
3034;SDS011;1527;48.836;9.172;2022-09-29T10:21:21;6.80;;;5.75;;
3034;SDS011;1527;48.836;9.172;2022-09-29T10:24:04;8.52;;;6.55;;
3034;SDS011;1527;48.836;9.172;2022-09-29T10:26:55;8.23;;;6.13;;
3034;SDS011;1527;48.836;9.172;2022-09-29T10:29:28;9.48;;;6.25;;
3034;SDS011;1527;48.836;9.172;2022-09-29T10:32:04;6.90;;;5.43;;
3034;SDS011;1527;48.836;9.172;2022-09-29T10:34:37;8.93;;;5.60;;
3034;SDS011;1527;48.836;9.172;2022-09-29T10:37:17;7.20;;;5.55;;
3034;SDS011;1527;48.836;9.172;2022-09-29T10:39:55;6.88;;;4.95;;
3034;SDS011;1527;48.836;9.172;2022-09-29T10:42:42;6.75;;;4.55;;
3034;SDS011;1527;48.836;9.172;2022-09-29T10:45:14;6.15;;;5.18;;
3034;SDS011;1527;48.836;9.172;2022-09-29T10:47:46;6.35;;;5.63;;
3034;SDS011;1527;48.836;9.172;2022-09-29T10:50:33;5.85;;;4.65;;
3034;SDS011;1527;48.836;9.172;2022-09-29T10:53:06;5.50;;;4.40;;
3034;SDS011;1527;48.836;9.172;2022-09-29T10:55:52;8.27;;;5.05;;
3034;SDS011;1527;48.836;9.172;2022-09-29T10:58:25;8.32;;;5.32;;
3034;SDS011;1527;48.836;9.172;2022-09-29T11:01:18;9.77;;;4.25;;
3034;SDS011;1527;48.836;9.172;2022-09-29T11:03:49;5.13;;;4.70;;
3034;SDS011;1527;48.836;9.172;2022-09-29T11:06:24;8.50;;;4.65;;
3034;SDS011;1527;48.836;9.172;2022-09-29T11:08:57;11.15;;;4.57;;
3034;SDS011;1527;48.836;9.172;2022-09-29T11:11:30;6.53;;;4.32;;
3034;SDS011;1527;48.836;9.172;2022-09-29T11:14:01;8.02;;;4.22;;
3034;SDS011;1527;48.836;9.172;2022-09-29T11:16:31;6.45;;;3.72;;
3034;SDS011;1527;48.836;9.172;2022-09-29T11:19:03;8.15;;;3.92;;
3034;SDS011;1527;48.836;9.172;2022-09-29T11:27:53;3.92;;;3.30;;
3034;SDS011;1527;48.836;9.172;2022-09-29T11:30:52;7.30;;;3.92;;
3034;SDS011;1527;48.836;9.172;2022-09-29T11:33:38;4.03;;;3.70;;
3034;SDS011;1527;48.836;9.172;2022-09-29T11:36:21;4.07;;;3.67;;
3034;SDS011;1527;48.836;9.172;2022-09-29T11:39:10;5.30;;;3.40;;
3034;SDS011;1527;48.836;9.172;2022-09-29T11:41:59;5.70;;;3.88;;
3034;SDS011;1527;48.836;9.172;2022-09-29T11:44:48;4.03;;;3.30;;
3034;SDS011;1527;48.836;9.172;2022-09-29T11:47:30;7.68;;;3.58;;
3034;SDS011;1527;48.836;9.172;2022-09-29T11:50:20;3.80;;;3.33;;
3034;SDS011;1527;48.836;9.172;2022-09-29T11:53:05;3.80;;;3.35;;
3034;SDS011;1527;48.836;9.172;2022-09-29T11:56:01;5.95;;;4.55;;
3034;SDS011;1527;48.836;9.172;2022-09-29T11:58:49;8.05;;;3.38;;
3034;SDS011;1527;48.836;9.172;2022-09-29T12:01:41;3.28;;;2.92;;
3034;SDS011;1527;48.836;9.172;2022-09-29T12:04:27;4.00;;;3.60;;
3034;SDS011;1527;48.836;9.172;2022-09-29T12:07:09;4.90;;;3.17;;
3034;SDS011;1527;48.836;9.172;2022-09-29T12:09:56;4.30;;;2.92;;
3034;SDS011;1527;48.836;9.172;2022-09-29T12:12:40;5.38;;;3.53;;
3034;SDS011;1527;48.836;9.172;2022-09-29T12:15:25;6.90;;;3.72;;
3034;SDS011;1527;48.836;9.172;2022-09-29T12:18:10;5.40;;;2.75;;
3034;SDS011;1527;48.836;9.172;2022-09-29T12:20:45;5.15;;;3.30;;
3034;SDS011;1527;48.836;9.172;2022-09-29T12:23:20;6.82;;;3.90;;
3034;SDS011;1527;48.836;9.172;2022-09-29T12:25:58;5.55;;;3.42;;
3034;SDS011;1527;48.836;9.172;2022-09-29T12:28:34;3.40;;;2.70;;
3034;SDS011;1527;48.836;9.172;2022-09-29T12:31:10;3.45;;;2.97;;
3034;SDS011;1527;48.836;9.172;2022-09-29T12:33:46;2.67;;;2.47;;
3034;SDS011;1527;48.836;9.172;2022-09-29T12:36:24;3.80;;;2.83;;
3034;SDS011;1527;48.836;9.172;2022-09-29T12:39:20;3.15;;;2.72;;
3034;SDS011;1527;48.836;9.172;2022-09-29T12:42:02;6.40;;;3.28;;
3034;SDS011;1527;48.836;9.172;2022-09-29T12:45:00;6.43;;;2.78;;
3034;SDS011;1527;48.836;9.172;2022-09-29T12:47:41;3.58;;;2.70;;
3034;SDS011;1527;48.836;9.172;2022-09-29T12:50:21;3.50;;;2.90;;
3034;SDS011;1527;48.836;9.172;2022-09-29T12:52:56;6.13;;;2.70;;
3034;SDS011;1527;48.836;9.172;2022-09-29T12:55:39;5.82;;;2.85;;
3034;SDS011;1527;48.836;9.172;2022-09-29T12:58:15;5.30;;;3.00;;
3034;SDS011;1527;48.836;9.172;2022-09-29T13:00:52;6.40;;;2.88;;
3034;SDS011;1527;48.836;9.172;2022-09-29T13:03:37;6.72;;;2.65;;
3034;SDS011;1527;48.836;9.172;2022-09-29T13:07:03;3.25;;;2.20;;
3034;SDS011;1527;48.836;9.172;2022-09-29T13:10:22;5.75;;;2.50;;
3034;SDS011;1527;48.836;9.172;2022-09-29T13:17:03;4.03;;;2.65;;
3034;SDS011;1527;48.836;9.172;2022-09-29T13:20:00;5.03;;;2.70;;
3034;SDS011;1527;48.836;9.172;2022-09-29T13:23:21;4.00;;;2.83;;
3034;SDS011;1527;48.836;9.172;2022-09-29T13:26:05;2.67;;;2.47;;
3034;SDS011;1527;48.836;9.172;2022-09-29T13:28:52;4.85;;;3.25;;
3034;SDS011;1527;48.836;9.172;2022-09-29T13:31:25;3.90;;;2.63;;
3034;SDS011;1527;48.836;9.172;2022-09-29T13:34:00;3.42;;;2.70;;
3034;SDS011;1527;48.836;9.172;2022-09-29T13:36:32;5.50;;;2.80;;
3034;SDS011;1527;48.836;9.172;2022-09-29T13:39:06;5.35;;;2.88;;
3034;SDS011;1527;48.836;9.172;2022-09-29T13:41:48;5.65;;;3.25;;
3034;SDS011;1527;48.836;9.172;2022-09-29T13:44:23;4.65;;;2.80;;
3034;SDS011;1527;48.836;9.172;2022-09-29T13:46:54;3.60;;;2.63;;
3034;SDS011;1527;48.836;9.172;2022-09-29T13:49:25;4.43;;;2.97;;
3034;SDS011;1527;48.836;9.172;2022-09-29T13:51:57;6.07;;;2.35;;
3034;SDS011;1527;48.836;9.172;2022-09-29T13:54:31;4.15;;;2.60;;
3034;SDS011;1527;48.836;9.172;2022-09-29T14:00:14;5.88;;;3.10;;
3034;SDS011;1527;48.836;9.172;2022-09-29T14:02:49;3.60;;;2.70;;
3034;SDS011;1527;48.836;9.172;2022-09-29T14:09:03;10.82;;;6.55;;
3034;SDS011;1527;48.836;9.172;2022-09-29T14:11:46;5.70;;;4.70;;
3034;SDS011;1527;48.836;9.172;2022-09-29T14:14:17;5.78;;;5.15;;
3034;SDS011;1527;48.836;9.172;2022-09-29T14:16:51;6.47;;;4.95;;
3034;SDS011;1527;48.836;9.172;2022-09-29T14:19:38;4.88;;;2.85;;
3034;SDS011;1527;48.836;9.172;2022-09-29T14:28:26;4.22;;;3.75;;
3034;SDS011;1527;48.836;9.172;2022-09-29T14:31:08;4.40;;;2.90;;
3034;SDS011;1527;48.836;9.172;2022-09-29T14:33:50;4.80;;;2.90;;
3034;SDS011;1527;48.836;9.172;2022-09-29T14:36:20;3.33;;;3.03;;
3034;SDS011;1527;48.836;9.172;2022-09-29T14:38:53;3.95;;;3.33;;
3034;SDS011;1527;48.836;9.172;2022-09-29T14:41:47;3.92;;;3.53;;
3034;SDS011;1527;48.836;9.172;2022-09-29T14:44:19;4.57;;;3.08;;
3034;SDS011;1527;48.836;9.172;2022-09-29T14:46:55;9.20;;;3.25;;
3034;SDS011;1527;48.836;9.172;2022-09-29T14:53:18;7.47;;;2.90;;
3034;SDS011;1527;48.836;9.172;2022-09-29T14:56:08;4.88;;;2.45;;
3034;SDS011;1527;48.836;9.172;2022-09-29T14:58:55;9.98;;;3.20;;
3034;SDS011;1527;48.836;9.172;2022-09-29T15:02:00;3.50;;;3.10;;
3034;SDS011;1527;48.836;9.172;2022-09-29T15:04:45;4.93;;;3.00;;
3034;SDS011;1527;48.836;9.172;2022-09-29T15:07:16;5.10;;;2.75;;
3034;SDS011;1527;48.836;9.172;2022-09-29T15:09:50;2.45;;;2.25;;
3034;SDS011;1527;48.836;9.172;2022-09-29T15:12:23;5.85;;;2.90;;
3034;SDS011;1527;48.836;9.172;2022-09-29T15:14:57;6.82;;;2.80;;
3034;SDS011;1527;48.836;9.172;2022-09-29T15:17:39;3.13;;;2.50;;
3034;SDS011;1527;48.836;9.172;2022-09-29T15:20:21;6.55;;;2.67;;
3034;SDS011;1527;48.836;9.172;2022-09-29T15:23:07;4.43;;;3.25;;
3034;SDS011;1527;48.836;9.172;2022-09-29T15:26:01;5.22;;;2.67;;
3034;SDS011;1527;48.836;9.172;2022-09-29T15:28:31;4.03;;;3.03;;
3034;SDS011;1527;48.836;9.172;2022-09-29T15:31:04;4.00;;;2.90;;
3034;SDS011;1527;48.836;9.172;2022-09-29T15:33:41;7.75;;;3.10;;
3034;SDS011;1527;48.836;9.172;2022-09-29T15:36:15;2.88;;;2.63;;
3034;SDS011;1527;48.836;9.172;2022-09-29T15:38:50;4.78;;;2.88;;
3034;SDS011;1527;48.836;9.172;2022-09-29T15:41:21;3.85;;;2.80;;
3034;SDS011;1527;48.836;9.172;2022-09-29T15:43:58;3.88;;;2.65;;
3034;SDS011;1527;48.836;9.172;2022-09-29T15:46:35;2.92;;;2.63;;
3034;SDS011;1527;48.836;9.172;2022-09-29T15:49:13;3.38;;;2.28;;
3034;SDS011;1527;48.836;9.172;2022-09-29T15:51:54;3.35;;;2.85;;
3034;SDS011;1527;48.836;9.172;2022-09-29T15:54:27;3.38;;;2.80;;
3034;SDS011;1527;48.836;9.172;2022-09-29T15:57:01;4.57;;;3.35;;
3034;SDS011;1527;48.836;9.172;2022-09-29T15:59:49;4.35;;;3.35;;
3034;SDS011;1527;48.836;9.172;2022-09-29T16:02:21;3.08;;;2.40;;
3034;SDS011;1527;48.836;9.172;2022-09-29T16:04:58;3.60;;;2.63;;
3034;SDS011;1527;48.836;9.172;2022-09-29T16:07:32;3.30;;;2.47;;
3034;SDS011;1527;48.836;9.172;2022-09-29T16:10:05;2.60;;;2.20;;
3034;SDS011;1527;48.836;9.172;2022-09-29T16:12:44;6.13;;;2.38;;
3034;SDS011;1527;48.836;9.172;2022-09-29T16:15:18;4.28;;;2.63;;
3034;SDS011;1527;48.836;9.172;2022-09-29T16:17:54;4.20;;;2.65;;
3034;SDS011;1527;48.836;9.172;2022-09-29T16:20:27;5.72;;;3.55;;
3034;SDS011;1527;48.836;9.172;2022-09-29T16:23:04;3.50;;;2.90;;
3034;SDS011;1527;48.836;9.172;2022-09-29T16:25:35;3.65;;;2.88;;
3034;SDS011;1527;48.836;9.172;2022-09-29T16:28:09;4.65;;;2.85;;
3034;SDS011;1527;48.836;9.172;2022-09-29T16:30:59;5.00;;;3.50;;
3034;SDS011;1527;48.836;9.172;2022-09-29T16:33:31;8.25;;;2.60;;
3034;SDS011;1527;48.836;9.172;2022-09-29T16:36:03;7.93;;;2.80;;
3034;SDS011;1527;48.836;9.172;2022-09-29T16:38:42;5.30;;;3.00;;
3034;SDS011;1527;48.836;9.172;2022-09-29T16:41:16;6.07;;;3.45;;
3034;SDS011;1527;48.836;9.172;2022-09-29T16:44:04;4.03;;;2.95;;
3034;SDS011;1527;48.836;9.172;2022-09-29T16:46:44;4.13;;;2.92;;
3034;SDS011;1527;48.836;9.172;2022-09-29T16:49:18;8.23;;;3.70;;